Ruso, North Dakota
Current Conditions -  °F | °C
As of 3:38 AM on Thursday 27 Nov 2014 (Local Time) from KMOT Reporting Station
Overcast Overcast  
Wind Chill: -9°   Ceiling: 1100
Heat Index: -9°   Visibility: 10mi
Dew Point: -15°   Wind: 3mph
Humidity: 75%   Direction: 130°SE
Pressure: 30.37"   Gusts: NA
Location:  47.84°N, 100.93°W
Report Text: KMOT 270938Z AUTO 13003KT 10SM OVC011 M23/M26 A3037 RMK AO2 T12281261
Loading
Personal Weather Stations






























Interactive Weather Map New forecast layout! Learn more

10-Day Weather Forecast

Advertisements
Track Severe Weather on mobile